11h32 EDT


 

Suivi/Infos de l'aéroport


-ou-


 

Suivi des vols en temps réel9Y-BGI ✈ 19-04-2013 ✈ MKJS / MBJ - MKJP / KIN

Thumbnail
9Y-BGI / BWA110
Unknown Owner · Trinidad & Tobago
Int'l Donald Sangster ( – info)
Montego Bay JM
Int'l Norman Manley de Kingston ( – info)
Kingston JM
Prévu: 09h50 EST
Prévu: 10h05 EST
Durée: 19 minutes
vendredi, 19 avril 2013
Statut Arrivé il y a plus d'un an. (journal de vol & graphique)
Avion Boeing 737-800 (biréacteur) (B738 – photos)
Vitesse Plan de vol: 292 kts (graphique)
Distance En ligne droite 135 km
Une partie au moins de ce vol se déroule hors de la zone de services primaire de FlightAware. Pour en savoir plus sur la couverture et la zone de services de FlightAware.
JOURNAL DE L'ACTIVITE
Vous voulez une recherche complète sur l'historique de 9Y-BGI depuis 1998? Achetez maintenant. Recevez-le dans l'heure.
Date Avion Provenance Destination Départ Arrivée Durée
30-07-2014 B738/LInt'l John-F.-Kennedy ()Piarco Int'l () 08h33 EDT 13h14 AST En vol
30-07-2014 B738/LPiarco Int'l ()Int'l John-F.-Kennedy () 01h41 AST 05h36 EDT 3:55
29-07-2014 B738/LInt'l John-F.-Kennedy ()Piarco Int'l () 08h37 EDT 13h47 AST 5:10
29-07-2014 B738/LPiarco Int'l ()Int'l John-F.-Kennedy () 01h52 AST 06h13 EDT 4:20
28-07-2014 B738/LInt'l Pearson de Toronto ()Piarco Int'l () 17h45 EDT 22h52 AST 5:06
28-07-2014 B738/LPiarco Int'l ()Int'l Pearson de Toronto () 10h47 AST 15h38 EDT 4:50
28-07-2014 B738/LInt'l John-F.-Kennedy ()Piarco Int'l () 02h04 EDT 06h26 AST 4:22
28-07-2014 B738Piarco Int'l ()Cheddi Jagan Int'l () 01h57 AST 02h52 GYT 0:55
27-07-2014 B738/LPiarco Int'l ()Int'l John-F.-Kennedy () 09h38 AST 14h30 EDT 4:51
27-07-2014 B738Cheddi Jagan Int'l ()Piarco Int'l () 06h43 GYT 07h34 AST 0:51
27-07-2014 B738Piarco Int'l ()Cheddi Jagan Int'l () 02h09 AST 02h42 GYT (+1) (?) 22:56
26-07-2014 B738/LInt'l John-F.-Kennedy ()Point Salines Int'l () 16h05 EDT 20h17 AST 4:11
26-07-2014 B738/LPoint Salines Int'l ()Int'l John-F.-Kennedy () 09h17 AST 13h25 EDT 4:08
26-07-2014 B738Piarco Int'l ()Point Salines Int'l () 07h08 AST 07h32 AST 0:24
25-07-2014 B738/LInt'l d'Orlando ()Piarco Int'l () 16h21 EDT 20h06 AST 3:45
25-07-2014 B738/LPiarco Int'l ()Int'l d'Orlando () 10h54 AST 14h07 EDT 3:12
24-07-2014 B738/LInt'l d'Orlando ()Int'l Norman Manley de Kingston () 18h10 EDT 18h56 EST 1:46
24-07-2014 B738Int'l Norman Manley de Kingston ()Int'l d'Orlando () 13h09 EST 16h10 EDT 2:01
24-07-2014 B738Piarco Int'l ()Int'l Norman Manley de Kingston () 09h58 AST 11h31 EST 2:33
24-07-2014 B738Int'l Grantley-Adams ()Piarco Int'l () 07h45 AST 08h22 AST 0:37
24-07-2014 B738Piarco Int'l ()Int'l Grantley-Adams () 06h17 AST 06h53 AST 0:36
24-07-2014 B738/LInt'l John-F.-Kennedy ()Piarco Int'l () 00h02 EDT 04h20 AST 4:18
23-07-2014 B738/LPiarco Int'l ()Int'l John-F.-Kennedy () 17h15 AST 21h40 EDT 4:24
23-07-2014 AT43Crown Point ()Piarco Int'l () 13h20 AST 13h40 AST 0:20
23-07-2014 AT43Piarco Int'l ()Crown Point () 12h18 AST 12h33 AST (?) 0:15
23-07-2014 B738Cheddi Jagan Int'l ()Piarco Int'l () 09h38 GYT 10h30 AST 0:52
23-07-2014 B738Piarco Int'l ()Cheddi Jagan Int'l () 07h23 AST 08h18 GYT 0:55
23-07-2014 B738/LInt'l John-F.-Kennedy ()Piarco Int'l () 01h12 EDT 05h29 AST 4:17
22-07-2014 B738/LPiarco Int'l ()Int'l John-F.-Kennedy () 18h14 AST 22h35 EDT 4:20
22-07-2014 B738Cheddi Jagan Int'l ()Piarco Int'l () 15h01 GYT 15h55 AST 0:54
22-07-2014 B738Piarco Int'l ()Cheddi Jagan Int'l () 06h38 AST 07h35 GYT 0:57
21-07-2014 B738/LInt'l Pearson de Toronto ()Piarco Int'l () 23h21 EDT 04h31 AST (+1) 5:10
21-07-2014 B738/LPiarco Int'l ()Int'l Pearson de Toronto () 14h54 AST 19h49 EDT 4:54
21-07-2014 B738/LInt'l John-F.-Kennedy ()Piarco Int'l () 07h58 EDT 12h30 AST 4:32
21-07-2014 B738/LPiarco Int'l ()Int'l John-F.-Kennedy () 01h08 AST 05h37 EDT 4:28
Les membres inscrits (l'inscription est gratuite et facile!) voient 4 months d'historique. S'inscrire